Time;durP1;ratioP1;P1;durP2;ratioP2;P2;SDS_P1;SDS_P2;PMS_P1;PMS_P2;Temp;Humidity;BMP_temperature;BMP_pressure;BME280_temperature;BME280_humidity;BME280_pressure;Samples;Min_cycle;Max_cycle;Signal;HPM_P1;HPM_P2
2024/02/24 00:01:05;;;;;;;91.90;51.00;;;;;;;6.42;75.70;100034.41;108582;1257;138920;-63
2024/02/24 00:03:51;;;;;;;94.10;50.70;;;;;;;6.44;75.77;100036.71;108832;1256;60613;-63
2024/02/24 00:06:18;;;;;;;91.10;50.50;;;;;;;6.48;75.97;100040.33;108781;1256;139291;-63
2024/02/24 00:08:45;;;;;;;80.90;46.10;;;;;;;6.50;75.90;100041.94;108931;1255;75896;-64
2024/02/24 00:11:12;;;;;;;84.70;48.00;;;;;;;6.51;75.92;100042.84;108832;1256;140021;-63
2024/02/24 00:13:39;;;;;;;89.20;49.20;;;;;;;6.50;75.94;100041.44;108961;1256;70758;-64
2024/02/24 00:16:06;;;;;;;81.20;47.20;;;;;;;6.51;76.01;100042.49;108937;1256;59007;-63
2024/02/24 00:18:33;;;;;;;85.10;47.50;;;;;;;6.51;76.00;100044.41;107422;1257;137940;-63
2024/02/24 00:21:00;;;;;;;78.10;45.00;;;;;;;6.52;76.12;100043.93;104825;1258;75283;-63
2024/02/24 00:23:28;;;;;;;84.00;46.10;;;;;;;6.52;76.22;100043.75;104650;1261;138171;-63
2024/02/24 00:25:55;;;;;;;82.10;45.50;;;;;;;6.49;76.19;100041.75;104630;1257;73884;-64
2024/02/24 00:28:22;;;;;;;77.20;45.60;;;;;;;6.46;76.31;100042.02;104780;1260;61256;-63
2024/02/24 00:30:49;;;;;;;73.70;44.70;;;;;;;6.47;76.42;100041.53;104687;1258;138696;-64
2024/02/24 00:33:16;;;;;;;88.00;47.70;;;;;;;6.47;76.48;100041.86;104894;1261;74525;-64
2024/02/24 00:35:42;;;;;;;86.80;48.40;;;;;;;6.47;76.64;100037.86;104675;1257;138698;-63
2024/02/24 00:38:09;;;;;;;85.90;47.10;;;;;;;6.47;76.67;100040.83;104703;1257;73915;-63
2024/02/24 00:40:36;;;;;;;76.50;45.60;;;;;;;6.48;76.86;100040.67;104771;1257;61392;-62
2024/02/24 00:43:03;;;;;;;80.90;46.20;;;;;;;6.49;76.87;100035.84;104759;1257;138753;-64
2024/02/24 00:45:30;;;;;;;79.70;45.40;;;;;;;6.50;76.92;100042.66;108800;1256;74973;-64
2024/02/24 00:47:56;;;;;;;83.30;44.20;;;;;;;6.51;77.03;100039.88;108747;1259;138711;-63
2024/02/24 00:50:28;;;;;;;77.20;44.20;;;;;;;6.51;77.01;100038.68;108836;1256;71470;-64
2024/02/24 00:52:56;;;;;;;82.70;44.90;;;;;;;6.52;76.99;100040.09;108902;1256;60484;-63
2024/02/24 00:55:23;;;;;;;77.20;44.00;;;;;;;6.52;77.07;100037.13;108919;1257;59320;-64
2024/02/24 00:57:50;;;;;;;82.40;44.30;;;;;;;6.54;77.15;100035.46;108850;1257;74638;-64
2024/02/24 01:00:17;;;;;;;71.60;44.00;;;;;;;6.55;77.14;100030.95;108777;1256;137949;-64
2024/02/24 01:02:44;;;;;;;76.90;45.10;;;;;;;6.57;77.26;100033.62;108698;1256;72825;-63
2024/02/24 01:05:11;;;;;;;80.50;46.30;;;;;;;6.59;77.45;100032.13;108695;1257;138203;-64
2024/02/24 01:07:38;;;;;;;78.60;44.10;;;;;;;6.61;77.34;100026.59;108958;1257;60062;-63
2024/02/24 01:10:05;;;;;;;75.10;42.70;;;;;;;6.61;77.37;100026.59;108950;1257;73628;-62
2024/02/24 01:12:32;;;;;;;77.00;43.00;;;;;;;6.62;77.48;100025.75;108769;1257;140330;-62
2024/02/24 01:14:59;;;;;;;72.40;41.50;;;;;;;6.62;77.57;100023.48;108805;1260;72420;-64
2024/02/24 01:17:25;;;;;;;74.10;40.90;;;;;;;6.63;77.59;100024.39;107666;1258;138855;-63
2024/02/24 01:19:52;;;;;;;67.60;42.30;;;;;;;6.65;77.67;100020.95;104826;1261;61383;-63
2024/02/24 01:22:19;;;;;;;69.60;40.10;;;;;;;6.63;77.59;100014.11;104865;1257;74109;-63
2024/02/24 01:24:45;;;;;;;67.80;39.30;;;;;;;6.62;77.64;100009.02;104597;1258;139274;-63
2024/02/24 01:27:12;;;;;;;61.90;38.30;;;;;;;6.63;77.82;100004.85;104691;1257;73127;-63
2024/02/24 01:29:39;;;;;;;63.70;36.70;;;;;;;6.62;77.84;100002.73;104622;1260;138894;-62
2024/02/24 01:32:05;;;;;;;61.30;36.40;;;;;;;6.60;77.90;99995.55;104724;1257;61133;-69
2024/02/24 01:34:32;;;;;;;63.40;36.50;;;;;;;6.61;78.01;99990.85;104650;1256;75682;-69
2024/02/24 01:36:59;;;;;;;61.70;35.60;;;;;;;6.61;78.13;99988.25;104612;1257;138552;-68
2024/02/24 01:39:26;;;;;;;58.30;33.30;;;;;;;6.61;78.08;99981.44;104794;1260;72989;-68
2024/02/24 01:41:52;;;;;;;57.70;33.10;;;;;;;6.58;78.18;99971.62;104641;1257;138554;-68
2024/02/24 01:44:19;;;;;;;53.50;32.70;;;;;;;6.58;78.32;99965.31;104698;1257;61417;-68
2024/02/24 01:46:46;;;;;;;55.60;34.30;;;;;;;6.58;78.38;99963.58;104665;1258;74903;-68
2024/02/24 01:49:13;;;;;;;55.60;33.00;;;;;;;6.59;78.49;99961.18;104533;1257;138130;-68
2024/02/24 01:51:40;;;;;;;52.10;31.30;;;;;;;6.59;78.49;99958.73;104697;1257;73204;-66
2024/02/24 01:54:07;;;;;;;48.60;29.50;;;;;;;6.60;78.67;99954.74;104590;1258;149322;-68
2024/02/24 01:56:35;;;;;;;44.80;28.10;;;;;;;6.58;78.69;99943.03;108836;1257;60171;-68
2024/02/24 01:59:02;;;;;;;48.00;29.50;;;;;;;6.57;78.77;99930.08;108718;1257;138719;-68
2024/02/24 02:01:29;;;;;;;44.30;26.60;;;;;;;6.58;78.90;99923.30;108838;1257;66090;-68
2024/02/24 02:03:57;;;;;;;45.00;26.00;;;;;;;6.55;78.76;99910.16;108789;1257;71104;-68
2024/02/24 02:06:24;;;;;;;48.70;29.30;;;;;;;6.52;78.91;99906.59;108746;1257;139108;-68
2024/02/24 02:08:51;;;;;;;38.30;25.60;;;;;;;6.50;79.03;99901.99;108889;1257;59561;-68
2024/02/24 02:11:17;;;;;;;38.60;25.40;;;;;;;6.49;79.03;99897.42;108753;1257;138659;-66
2024/02/24 02:13:44;;;;;;;36.60;23.90;;;;;;;6.45;79.20;99892.45;108879;1256;66047;-69
2024/02/24 02:16:11;;;;;;;35.20;23.90;;;;;;;6.46;79.30;99899.96;108821;1256;72821;-69
2024/02/24 02:18:37;;;;;;;35.30;22.00;;;;;;;6.45;79.27;99903.42;108697;1256;138862;-69
2024/02/24 02:21:04;;;;;;;29.30;21.60;;;;;;;6.43;79.33;99899.89;108876;1257;60334;-69
2024/02/24 02:23:31;;;;;;;29.70;20.80;;;;;;;6.45;79.49;99905.52;108823;1257;139075;-68
2024/02/24 02:25:58;;;;;;;31.50;21.40;;;;;;;6.47;79.65;99907.66;108880;1255;65410;-68
2024/02/24 02:28:24;;;;;;;30.30;18.90;;;;;;;6.51;79.71;99907.27;108875;1257;71420;-68
2024/02/24 02:30:51;;;;;;;33.00;20.80;;;;;;;6.51;79.58;99902.89;108661;1257;139299;-69
2024/02/24 02:33:18;;;;;;;33.00;22.20;;;;;;;6.52;79.77;99892.29;108827;1256;61494;-69
2024/02/24 02:35:44;;;;;;;31.90;20.20;;;;;;;6.52;79.86;99887.58;108756;1257;139537;-69
2024/02/24 02:38:11;;;;;;;34.70;21.60;;;;;;;6.54;79.91;99887.27;108938;1257;66074;-68
2024/02/24 02:40:38;;;;;;;28.90;20.20;;;;;;;6.53;79.82;99883.07;108936;1256;73935;-68
2024/02/24 02:43:05;;;;;;;31.50;21.60;;;;;;;6.49;79.82;99882.29;108721;1256;138280;-68
2024/02/24 02:45:32;;;;;;;33.90;22.50;;;;;;;6.43;79.75;99878.09;108864;1257;60381;-68
2024/02/24 02:47:58;;;;;;;41.60;25.50;;;;;;;6.36;79.98;99874.27;108721;1257;138701;-67
2024/02/24 02:50:25;;;;;;;37.70;24.30;;;;;;;6.39;80.24;99870.31;108886;1257;66356;-68
2024/02/24 02:52:52;;;;;;;40.80;27.40;;;;;;;6.37;80.22;99866.80;108939;1256;70986;-68
2024/02/24 02:55:20;;;;;;;44.50;28.30;;;;;;;6.29;80.19;99860.46;108786;1256;138281;-68
2024/02/24 02:57:48;;;;;;;42.00;27.50;;;;;;;6.19;80.21;99848.86;108861;1257;60382;-68
2024/02/24 03:00:15;;;;;;;44.40;27.70;;;;;;;6.16;80.42;99847.38;108745;1256;139884;-68
2024/02/24 03:02:42;;;;;;;38.70;26.00;;;;;;;6.13;80.56;99841.55;108825;1257;65506;-68
2024/02/24 03:05:09;;;;;;;35.00;24.60;;;;;;;6.11;80.67;99840.79;108747;1256;140279;-68
2024/02/24 03:07:35;;;;;;;36.30;23.50;;;;;;;6.05;80.71;99832.27;108944;1257;59431;-67
2024/02/24 03:10:03;;;;;;;34.90;22.60;;;;;;;6.00;80.84;99827.62;108955;1255;60390;-67
2024/02/24 03:12:30;;;;;;;31.20;22.00;;;;;;;5.96;80.92;99822.45;108770;1257;138587;-67
2024/02/24 03:14:56;;;;;;;30.20;19.30;;;;;;;5.91;81.01;99818.80;108866;1257;65309;-68
2024/02/24 03:17:23;;;;;;;28.50;21.30;;;;;;;5.86;81.24;99814.98;108757;1257;139146;-68
2024/02/24 03:19:50;;;;;;;34.00;19.50;;;;;;;5.85;81.41;99818.61;108846;1256;58998;-68
2024/02/24 03:22:16;;;;;;;31.00;19.20;;;;;;;5.87;81.66;99815.00;108907;1257;60458;-68
2024/02/24 03:24:43;;;;;;;29.10;19.00;;;;;;;5.90;81.85;99811.60;108828;1257;138374;-68
2024/02/24 03:27:13;;;;;;;26.10;19.00;;;;;;;5.89;81.83;99813.14;108845;1257;67505;-68
2024/02/24 03:29:40;;;;;;;27.10;17.30;;;;;;;5.89;82.02;99808.29;108687;1256;138630;-68
2024/02/24 03:32:07;;;;;;;24.10;17.10;;;;;;;5.91;82.01;99808.86;108816;1261;59874;-68
2024/02/24 03:34:34;;;;;;;24.20;16.70;;;;;;;5.92;82.09;99809.77;108780;1257;59031;-68
2024/02/24 03:37:00;;;;;;;25.00;17.50;;;;;;;5.95;82.17;99805.30;108781;1259;138428;-68
2024/02/24 03:39:27;;;;;;;25.90;16.90;;;;;;;5.95;82.14;99808.27;108918;1256;66359;-67
2024/02/24 03:41:54;;;;;;;25.70;16.90;;;;;;;6.00;82.41;99811.59;108726;1256;139056;-68
2024/02/24 03:44:20;;;;;;;23.00;14.70;;;;;;;6.09;82.49;99806.93;108874;1257;59654;-67
2024/02/24 03:46:47;;;;;;;22.10;15.00;;;;;;;6.15;82.36;99803.98;108904;1256;60289;-67
2024/02/24 03:49:14;;;;;;;21.20;12.70;;;;;;;6.16;82.19;99797.39;108679;1256;138581;-68
2024/02/24 03:51:41;;;;;;;17.00;12.70;;;;;;;6.08;81.92;99791.27;108914;1255;64967;-69
2024/02/24 03:54:10;;;;;;;17.30;12.70;;;;;;;5.97;81.98;99788.65;108713;1257;138642;-69
2024/02/24 03:56:36;;;;;;;15.70;11.50;;;;;;;5.83;82.20;99790.51;108910;1255;60804;-69
2024/02/24 03:59:03;;;;;;;19.60;12.20;;;;;;;5.76;82.58;99786.83;108781;1257;139270;-67
2024/02/24 04:01:30;;;;;;;20.30;13.30;;;;;;;5.80;83.01;99787.67;108872;1257;73505;-69
2024/02/24 04:03:57;;;;;;;20.20;13.60;;;;;;;5.90;83.38;99780.80;108855;1257;64176;-68
2024/02/24 04:06:23;;;;;;;20.30;12.30;;;;;;;5.99;83.58;99779.88;108763;1256;139120;-68
2024/02/24 04:08:50;;;;;;;17.00;10.70;;;;;;;6.07;83.59;99770.66;107814;1257;61379;-70
2024/02/24 04:11:17;;;;;;;18.20;11.20;;;;;;;6.10;83.53;99760.46;105625;1257;138686;-68
2024/02/24 04:13:44;;;;;;;17.30;11.00;;;;;;;6.12;83.43;99746.60;105873;1258;74267;-68
2024/02/24 04:16:11;;;;;;;15.40;9.60;;;;;;;6.06;83.14;99737.56;105847;1257;65479;-74
2024/02/24 04:18:37;;;;;;;14.50;10.20;;;;;;;6.00;83.15;99741.57;105649;1256;139284;-72
2024/02/24 04:21:04;;;;;;;13.10;9.30;;;;;;;5.96;83.12;99743.05;105747;1261;61317;-69
2024/02/24 04:23:31;;;;;;;12.10;9.50;;;;;;;5.94;83.22;99737.91;105533;1258;138963;-63
2024/02/24 04:25:58;;;;;;;12.70;8.40;;;;;;;5.94;83.32;99722.91;104919;1257;75267;-72
2024/02/24 04:28:25;;;;;;;13.00;7.80;;;;;;;5.93;83.32;99719.05;105787;1257;66836;-73
2024/02/24 04:30:52;;;;;;;12.00;7.20;;;;;;;5.94;83.48;99736.51;105674;1257;138603;-63
2024/02/24 04:33:19;;;;;;;13.10;8.10;;;;;;;5.90;83.28;99737.96;104700;1258;61409;-64
2024/02/24 04:35:46;;;;;;;12.20;8.20;;;;;;;5.91;83.53;99728.56;108712;1256;138894;-64
2024/02/24 04:38:13;;;;;;;16.90;8.30;;;;;;;5.96;83.76;99720.04;107205;1257;75734;-63
2024/02/24 04:40:39;;;;;;;12.40;8.70;;;;;;;6.01;83.81;99718.44;104867;1258;65818;-63
2024/02/24 04:43:06;;;;;;;13.70;9.00;;;;;;;6.08;83.79;99719.66;104575;1257;138614;-63
2024/02/24 04:45:33;;;;;;;16.00;9.10;;;;;;;6.15;83.91;99710.42;104765;1258;61325;-63
2024/02/24 04:47:59;;;;;;;15.40;9.70;;;;;;;6.21;83.82;99696.83;104649;1256;138822;-62
2024/02/24 04:50:26;;;;;;;15.90;9.80;;;;;;;6.24;83.75;99698.64;104732;1260;74133;-63
2024/02/24 04:52:53;;;;;;;17.40;10.90;;;;;;;6.27;83.78;99705.70;104818;1260;67552;-62
2024/02/24 04:55:20;;;;;;;15.40;10.40;;;;;;;6.28;83.67;99715.14;108751;1257;138844;-63
2024/02/24 04:57:47;;;;;;;15.60;9.30;;;;;;;6.32;83.70;99707.39;108878;1255;59589;-63
2024/02/24 05:00:14;;;;;;;14.40;9.40;;;;;;;6.36;83.68;99706.80;105022;1257;138701;-63
2024/02/24 05:02:41;;;;;;;13.50;9.70;;;;;;;6.42;83.63;99707.30;106276;1256;73760;-67
2024/02/24 05:05:09;;;;;;;15.80;11.10;;;;;;;6.44;83.50;99707.51;104525;1261;138809;-66
2024/02/24 05:07:36;;;;;;;13.60;8.00;;;;;;;6.48;83.40;99699.77;105015;1260;73676;-67
2024/02/24 05:10:04;;;;;;;9.40;7.20;;;;;;;6.45;83.28;99693.23;104794;1255;61298;-67
2024/02/24 05:12:30;;;;;;;16.90;11.80;;;;;;;6.36;82.96;99690.25;108716;1257;138506;-67
2024/02/24 05:14:57;;;;;;;15.80;11.60;;;;;;;6.29;82.92;99675.27;108818;1257;76235;-65
2024/02/24 05:17:24;;;;;;;16.60;11.80;;;;;;;6.20;83.04;99660.92;108780;1258;138649;-64
2024/02/24 05:19:50;;;;;;;16.90;12.90;;;;;;;6.16;83.12;99659.79;107713;1258;72882;-64
2024/02/24 05:22:17;;;;;;;21.10;14.20;;;;;;;6.12;83.29;99651.31;104693;1260;61269;-63
2024/02/24 05:24:45;;;;;;;22.20;14.60;;;;;;;6.09;83.36;99652.48;104772;1257;138967;-63
2024/02/24 05:27:12;;;;;;;18.40;14.20;;;;;;;6.04;83.42;99648.33;104657;1257;73561;-64
2024/02/24 05:29:45;;;;;;;24.20;15.50;;;;;;;6.01;83.62;99649.84;104523;1260;138567;-64
2024/02/24 05:32:16;;;;;;;18.20;13.40;;;;;;;6.00;83.63;99641.44;108889;1256;71622;-68
2024/02/24 05:34:43;;;;;;;17.50;12.90;;;;;;;5.94;83.54;99635.33;108773;1256;58913;-65
2024/02/24 05:37:10;;;;;;;17.40;11.70;;;;;;;5.85;83.62;99633.88;108671;1257;138481;-66
2024/02/24 05:39:38;;;;;;;15.50;10.60;;;;;;;5.80;83.71;99634.98;108864;1257;73371;-66
2024/02/24 05:42:05;;;;;;;14.80;10.90;;;;;;;5.74;83.75;99630.81;108674;1256;138493;-65
2024/02/24 05:44:32;;;;;;;15.90;11.60;;;;;;;5.72;84.07;99621.36;108748;1257;72486;-64
2024/02/24 05:46:59;;;;;;;15.40;11.00;;;;;;;5.73;84.13;99621.03;108677;1257;138631;-65
2024/02/24 05:49:26;;;;;;;14.00;10.60;;;;;;;5.73;84.22;99621.38;108693;1257;60107;-64
2024/02/24 05:51:53;;;;;;;13.90;10.60;;;;;;;5.73;84.37;99624.69;105804;1258;77374;-64
2024/02/24 05:54:20;;;;;;;12.10;9.40;;;;;;;5.68;84.33;99620.37;104197;1261;138366;-64
2024/02/24 05:56:47;;;;;;;13.50;10.20;;;;;;;5.64;84.46;99615.58;104416;1259;74093;-65
2024/02/24 05:59:14;;;;;;;12.40;10.50;;;;;;;5.62;84.53;99613.61;104567;1258;139213;-65
2024/02/24 06:01:40;;;;;;;12.90;9.40;;;;;;;5.59;84.77;99605.00;104408;1260;61160;-66
2024/02/24 06:04:07;;;;;;;9.50;8.10;;;;;;;5.56;84.93;99600.23;104500;1257;74058;-68
2024/02/24 06:06:34;;;;;;;12.20;9.80;;;;;;;5.54;85.24;99598.79;104339;1261;138486;-66
2024/02/24 06:09:01;;;;;;;10.20;8.30;;;;;;;5.52;85.32;99601.67;104486;1257;73467;-65
2024/02/24 06:11:28;;;;;;;10.40;8.50;;;;;;;5.52;85.49;99595.94;108666;1257;138512;-64
2024/02/24 06:13:55;;;;;;;10.70;8.50;;;;;;;5.51;85.63;99599.72;108794;1257;59333;-66
2024/02/24 06:16:21;;;;;;;11.70;8.40;;;;;;;5.48;85.54;99598.63;108743;1257;73692;-66
2024/02/24 06:18:49;;;;;;;9.00;7.30;;;;;;;5.49;85.75;99587.34;108656;1257;138161;-66
2024/02/24 06:21:16;;;;;;;9.60;6.90;;;;;;;5.48;85.90;99575.14;108739;1257;71322;-67
2024/02/24 14:40:54;;;;;;;10.70;7.90;;;;;;;7.96;76.32;100235.29;107906;1262;78940;-91
2024/02/24 14:43:55;;;;;;;10.00;8.90;;;;;;;7.94;76.30;100244.16;106588;1262;65475;-89
2024/02/24 14:46:28;;;;;;;5.70;5.10;;;;;;;7.94;76.39;100251.30;104829;1262;2041187;-93
2024/02/24 14:49:09;;;;;;;12.50;10.00;;;;;;;7.93;76.42;100261.59;107126;1267;60807;-89
2024/02/24 14:52:13;;;;;;;15.80;11.40;;;;;;;7.92;76.46;100263.84;106735;1263;138632;-92
2024/02/24 14:54:54;;;;;;;51.80;31.70;;;;;;;7.92;76.47;100279.90;107240;1262;75649;-91
2024/02/24 14:58:11;;;;;;;;;;;;;;;;;;;;;
2024/02/24 15:01:04;;;;;;;;;;;;;;;;;;;;;
2024/02/24 15:09:16;;;;;;;5.90;4.90;;;;;;;7.78;76.58;100292.96;107401;1260;62558;-93
2024/02/24 15:11:38;;;;;;;4.00;3.20;;;;;;;7.72;76.65;100295.77;106610;1262;73897;-91
2024/02/24 15:15:20;;;;;;;;;;;;;;;;;;;;;
2024/02/24 15:29:39;;;;;;;6.80;4.50;;;;;;;7.49;76.84;100325.98;103483;1263;79387;-61
2024/02/24 15:32:06;;;;;;;6.20;4.00;;;;;;;7.43;76.86;100327.35;103295;1264;66121;-67
2024/02/24 15:34:33;;;;;;;8.00;4.40;;;;;;;7.38;77.01;100330.89;107758;1262;138920;-67
2024/02/24 15:37:00;;;;;;;7.20;4.10;;;;;;;7.32;76.97;100335.56;107744;1262;60330;-67
2024/02/24 15:39:27;;;;;;;10.70;4.50;;;;;;;7.25;76.98;100340.77;107696;1263;138763;-67
2024/02/24 15:41:53;;;;;;;8.70;5.20;;;;;;;7.18;77.10;100345.42;108351;1262;72337;-67
2024/02/24 15:44:20;;;;;;;8.30;5.70;;;;;;;7.09;77.11;100346.71;108424;1262;65153;-67
2024/02/24 15:46:47;;;;;;;10.60;6.10;;;;;;;7.01;77.25;100353.43;108374;1262;138741;-67
2024/02/24 15:49:14;;;;;;;10.40;6.10;;;;;;;6.93;77.25;100354.55;108528;1262;59131;-63
2024/02/24 15:51:41;;;;;;;9.00;5.50;;;;;;;6.86;77.33;100354.16;108407;1262;139136;-62
2024/02/24 15:54:09;;;;;;;10.70;6.50;;;;;;;6.80;77.42;100359.36;108425;1262;75735;-63
2024/02/24 15:56:35;;;;;;;12.60;7.10;;;;;;;6.72;77.54;100360.31;108523;1262;65988;-66
2024/02/24 15:59:02;;;;;;;11.90;6.70;;;;;;;6.66;77.57;100360.95;108518;1262;138459;-66
2024/02/24 16:01:29;;;;;;;12.40;6.80;;;;;;;6.58;77.53;100362.25;108596;1262;59228;-66
2024/02/24 16:03:56;;;;;;;12.60;7.00;;;;;;;6.50;77.71;100364.96;108500;1262;139523;-67
2024/02/24 16:06:25;;;;;;;12.80;7.60;;;;;;;6.42;77.72;100369.19;108524;1262;73790;-66
2024/02/24 16:08:52;;;;;;;16.00;7.70;;;;;;;6.34;77.83;100373.79;108457;1262;67029;-66
2024/02/24 16:11:20;;;;;;;17.40;7.90;;;;;;;6.26;77.92;100379.10;108451;1262;138739;-66
2024/02/24 16:13:47;;;;;;;14.80;7.50;;;;;;;6.19;78.08;100384.94;108526;1262;59086;-66
2024/02/24 16:16:13;;;;;;;14.60;7.30;;;;;;;6.12;78.23;100385.89;108339;1262;138383;-65
2024/02/24 16:18:42;;;;;;;14.50;9.10;;;;;;;6.03;78.25;100389.91;108535;1262;73405;-68
2024/02/24 16:21:09;;;;;;;14.10;9.10;;;;;;;5.96;78.49;100394.33;105421;1262;137884;-67
2024/02/24 16:23:36;;;;;;;13.30;8.10;;;;;;;5.87;78.46;100397.96;108429;1265;71642;-65
2024/02/24 16:26:03;;;;;;;14.30;8.90;;;;;;;5.80;78.58;100409.18;108584;1267;59388;-68
2024/02/24 16:28:29;;;;;;;15.40;8.10;;;;;;;5.71;78.63;100418.08;108447;1262;138163;-68
2024/02/24 16:30:57;;;;;;;18.00;8.10;;;;;;;5.62;78.73;100421.20;108579;1262;74477;-69
2024/02/24 16:33:24;;;;;;;14.90;7.40;;;;;;;5.52;78.85;100422.56;108445;1264;138476;-69
2024/02/24 16:35:51;;;;;;;15.10;7.90;;;;;;;5.46;79.00;100431.70;106837;1265;73087;-68
2024/02/24 16:38:18;;;;;;;14.10;7.50;;;;;;;5.39;79.14;100437.17;108528;1262;59165;-70
2024/02/24 16:40:45;;;;;;;21.00;9.00;;;;;;;5.34;79.35;100445.30;108150;1262;139285;-70
2024/02/24 16:43:12;;;;;;;15.70;9.60;;;;;;;5.29;79.54;100450.86;106006;1263;75057;-70
2024/02/24 16:45:38;;;;;;;17.40;8.20;;;;;;;5.24;79.68;100456.94;105501;1262;139353;-69
2024/02/24 16:48:05;;;;;;;18.00;10.10;;;;;;;5.20;79.83;100459.37;105573;1262;73070;-70
2024/02/24 16:50:33;;;;;;;17.30;11.90;;;;;;;5.17;79.98;100469.66;105449;1263;61467;-71
2024/02/24 16:52:59;;;;;;;22.20;13.60;;;;;;;5.12;80.08;100475.55;105376;1265;138798;-68
2024/02/24 16:55:26;;;;;;;26.00;18.50;;;;;;;5.07;80.20;100478.31;105558;1262;74643;-70
2024/02/24 16:57:53;;;;;;;27.90;18.30;;;;;;;5.03;80.31;100483.69;105327;1262;138742;-70
2024/02/24 17:00:20;;;;;;;19.00;14.40;;;;;;;4.99;80.47;100488.56;104190;1264;73310;-70
2024/02/24 17:02:48;;;;;;;21.10;15.40;;;;;;;4.96;80.54;100493.30;104163;1267;61237;-69
2024/02/24 17:05:15;;;;;;;29.00;20.60;;;;;;;4.93;80.65;100489.33;108463;1262;138671;-70
2024/02/24 17:07:42;;;;;;;26.70;20.20;;;;;;;4.90;80.76;100494.75;108558;1262;74455;-70
2024/02/24 17:10:09;;;;;;;25.30;16.80;;;;;;;4.86;80.80;100496.73;108201;1262;138471;-69
2024/02/24 17:12:36;;;;;;;29.80;22.40;;;;;;;4.83;80.86;100498.64;105564;1266;71365;-69
2024/02/24 17:15:03;;;;;;;36.70;29.60;;;;;;;4.79;80.80;100505.62;105529;1266;61283;-69
2024/02/24 17:17:30;;;;;;;27.50;21.60;;;;;;;4.74;80.87;100506.23;105220;1268;139129;-68
2024/02/24 17:19:57;;;;;;;37.00;29.20;;;;;;;4.71;80.94;100519.70;105509;1263;73918;-70
2024/02/24 17:22:24;;;;;;;33.80;26.90;;;;;;;4.65;80.92;100520.30;104101;1268;138774;-71
2024/02/24 17:24:51;;;;;;;33.00;26.10;;;;;;;4.60;80.97;100523.03;104121;1262;73206;-71
2024/02/24 17:27:18;;;;;;;28.50;19.80;;;;;;;4.54;81.10;100527.96;104126;1263;139497;-70
2024/02/24 17:29:45;;;;;;;27.90;19.00;;;;;;;4.50;81.13;100530.88;104218;1267;61267;-69
2024/02/24 17:32:13;;;;;;;32.00;18.80;;;;;;;4.45;81.27;100527.17;104154;1264;73445;-69
2024/02/24 17:34:39;;;;;;;32.90;20.40;;;;;;;4.39;81.31;100529.54;104023;1262;138742;-70
2024/02/24 17:37:06;;;;;;;35.60;22.50;;;;;;;4.35;81.45;100534.72;108420;1262;73733;-70
2024/02/24 17:39:33;;;;;;;46.50;31.70;;;;;;;4.31;81.32;100538.88;108299;1266;139536;-70
2024/02/24 17:42:01;;;;;;;37.40;26.20;;;;;;;4.26;81.51;100539.52;108579;1262;60376;-70
2024/02/24 17:44:28;;;;;;;31.90;22.00;;;;;;;4.23;81.56;100539.02;104719;1262;75057;-69
2024/02/24 17:46:55;;;;;;;33.10;21.80;;;;;;;4.19;81.62;100544.21;104221;1263;138705;-69
2024/02/24 17:49:24;;;;;;;34.80;24.90;;;;;;;4.16;81.75;100539.89;104293;1263;73181;-70
2024/02/24 17:51:51;;;;;;;45.30;29.40;;;;;;;4.10;81.92;100540.86;108430;1263;139952;-70
2024/02/24 17:54:18;;;;;;;53.40;32.70;;;;;;;4.07;82.05;100540.21;108571;1262;60865;-71
2024/02/24 17:56:45;;;;;;;64.50;41.80;;;;;;;4.05;82.13;100540.09;108416;1263;74288;-71
2024/02/24 17:59:11;;;;;;;66.40;42.30;;;;;;;4.03;82.26;100537.25;105732;1262;141185;-70
2024/02/24 18:01:39;;;;;;;56.10;36.20;;;;;;;3.99;82.28;100537.39;104318;1264;73492;-70
2024/02/24 18:04:05;;;;;;;58.60;38.80;;;;;;;3.97;82.25;100539.54;104158;1264;138558;-70
2024/02/24 18:06:32;;;;;;;56.00;36.60;;;;;;;3.96;82.39;100539.27;104349;1266;61296;-70
2024/02/24 18:08:59;;;;;;;33.80;22.60;;;;;;;3.92;82.36;100544.84;105531;1262;75583;-70
2024/02/24 18:11:26;;;;;;;31.30;20.40;;;;;;;3.89;82.49;100548.33;104280;1263;138371;-70
2024/02/24 18:13:52;;;;;;;26.00;17.80;;;;;;;3.87;82.60;100547.90;104307;1263;73606;-70
2024/02/24 18:16:19;;;;;;;26.50;17.50;;;;;;;3.83;82.70;100552.08;104154;1265;139124;-70
2024/02/24 18:18:46;;;;;;;26.60;16.70;;;;;;;3.79;82.79;100553.42;104349;1263;60900;-70
2024/02/24 18:21:19;;;;;;;26.30;15.70;;;;;;;3.76;82.75;100557.95;104300;1262;138714;-70
2024/02/24 18:23:46;;;;;;;26.40;15.90;;;;;;;3.72;82.97;100564.72;104421;1263;66083;-70
2024/02/24 18:26:13;;;;;;;28.50;15.00;;;;;;;3.69;82.98;100564.59;104388;1266;72831;-70
2024/02/24 18:28:39;;;;;;;26.50;14.50;;;;;;;3.68;83.12;100567.83;104247;1267;138460;-70
2024/02/24 18:31:06;;;;;;;22.60;14.10;;;;;;;3.66;83.30;100571.52;104306;1267;61279;-71
2024/02/24 18:33:33;;;;;;;29.00;15.20;;;;;;;3.63;83.33;100574.35;104291;1263;138645;-71
2024/02/24 18:36:00;;;;;;;33.20;16.70;;;;;;;3.61;83.38;100572.00;104401;1266;66828;-70
2024/02/24 18:38:27;;;;;;;35.20;18.70;;;;;;;3.60;83.53;100574.35;104486;1263;71988;-70
2024/02/24 18:40:54;;;;;;;30.60;17.40;;;;;;;3.59;83.66;100571.88;105435;1265;138305;-71
2024/02/24 18:43:22;;;;;;;26.70;17.30;;;;;;;3.58;83.69;100575.95;105612;1263;61559;-70
2024/02/24 18:45:49;;;;;;;30.30;17.10;;;;;;;3.57;83.77;100583.74;105506;1263;139073;-67
2024/02/24 18:48:16;;;;;;;26.60;16.00;;;;;;;3.56;83.92;100587.86;104387;1267;66964;-67
2024/02/24 18:50:43;;;;;;;27.50;16.50;;;;;;;3.55;83.87;100589.21;104329;1267;73413;-64
2024/02/24 18:53:09;;;;;;;30.30;17.60;;;;;;;3.54;84.01;100593.30;104238;1267;138530;-64
2024/02/24 18:55:36;;;;;;;34.00;16.70;;;;;;;3.54;84.14;100590.35;104246;1265;61266;-70
2024/02/24 18:58:03;;;;;;;29.60;17.60;;;;;;;3.53;84.10;100593.24;104319;1263;141806;-70
2024/02/24 19:00:30;;;;;;;34.10;18.00;;;;;;;3.52;84.18;100593.54;104287;1263;66822;-69
2024/02/24 19:02:57;;;;;;;29.30;17.50;;;;;;;3.51;84.23;100598.89;104446;1265;72493;-69
2024/02/24 19:05:24;;;;;;;31.60;17.50;;;;;;;3.49;84.21;100601.05;104126;1264;138629;-69
2024/02/24 19:07:52;;;;;;;32.60;19.30;;;;;;;3.47;84.31;100604.75;104315;1264;60418;-69
2024/02/24 19:10:19;;;;;;;32.50;17.70;;;;;;;3.49;84.51;100608.13;105992;1263;138398;-70
2024/02/24 19:12:46;;;;;;;37.70;21.70;;;;;;;3.50;84.61;100613.05;104184;1263;66891;-69
2024/02/24 19:15:13;;;;;;;36.00;19.40;;;;;;;3.50;84.77;100619.64;106314;1262;138695;-70
2024/02/24 19:17:40;;;;;;;34.00;21.60;;;;;;;3.51;84.77;100624.72;104346;1266;61481;-70
2024/02/24 19:20:08;;;;;;;54.40;31.10;;;;;;;3.52;84.82;100626.16;104309;1264;61386;-70
2024/02/24 19:22:35;;;;;;;64.00;34.90;;;;;;;3.53;84.81;100627.23;108441;1262;139144;-70
2024/02/24 19:25:01;;;;;;;57.90;34.50;;;;;;;3.52;84.88;100629.83;108459;1262;66402;-70
2024/02/24 19:27:28;;;;;;;36.70;20.90;;;;;;;3.53;84.87;100633.66;107180;1262;139091;-69
2024/02/24 19:29:55;;;;;;;35.60;18.70;;;;;;;3.53;84.98;100631.09;104329;1268;61356;-71
2024/02/24 19:32:22;;;;;;;47.10;25.70;;;;;;;3.54;84.96;100635.48;104536;1267;61256;-70
2024/02/24 19:34:51;;;;;;;41.60;24.10;;;;;;;3.54;84.92;100638.58;104118;1264;138656;-70
2024/02/24 19:37:18;;;;;;;50.50;25.30;;;;;;;3.53;84.93;100634.70;108088;1262;66995;-71
2024/02/24 19:39:44;;;;;;;39.00;21.10;;;;;;;3.52;84.94;100629.65;107676;1262;138615;-70
2024/02/24 19:42:11;;;;;;;47.50;25.00;;;;;;;3.50;85.02;100627.65;107786;1263;59496;-70
2024/02/24 19:44:38;;;;;;;44.90;23.00;;;;;;;3.50;85.12;100630.77;107526;1263;61407;-70
2024/02/24 19:47:09;;;;;;;34.70;19.80;;;;;;;3.52;85.15;100635.17;105326;1263;138785;-71
2024/02/24 19:49:36;;;;;;;32.80;19.20;;;;;;;3.52;85.17;100638.66;105472;1262;66130;-70
2024/02/24 19:52:03;;;;;;;35.40;18.90;;;;;;;3.52;85.07;100641.09;105282;1262;138557;-70
2024/02/24 19:54:30;;;;;;;32.70;17.10;;;;;;;3.51;85.15;100645.73;105496;1263;61352;-70